Time;durP1;ratioP1;P1;durP2;ratioP2;P2;SDS_P1;SDS_P2;PMS_P1;PMS_P2;Temp;Humidity;BMP_temperature;BMP_pressure;BME280_temperature;BME280_humidity;BME280_pressure;Samples;Min_cycle;Max_cycle;Signal;HPM_P1;HPM_P2
2022/04/06 00:00:34;;;;;;;35.25;21.25;;;;;;;7.93;100.00;100071.86;1755129;81;21528;-62
2022/04/06 00:03:02;;;;;;;33.63;20.57;;;;;;;7.97;100.00;100064.44;1754945;81;21039;-62
2022/04/06 00:05:29;;;;;;;34.90;21.07;;;;;;;7.91;100.00;100064.68;1755129;81;21504;-62
2022/04/06 00:07:57;;;;;;;32.38;20.57;;;;;;;8.00;100.00;100059.17;1755136;82;21047;-62
2022/04/06 00:10:24;;;;;;;36.40;21.85;;;;;;;8.06;100.00;100059.38;1754881;81;21054;-62
2022/04/06 00:12:52;;;;;;;37.17;22.07;;;;;;;8.05;100.00;100059.83;1755150;82;21040;-62
2022/04/06 00:15:21;;;;;;;39.00;21.20;;;;;;;8.08;100.00;100062.70;1754866;81;20988;-62
2022/04/06 00:17:48;;;;;;;38.92;21.87;;;;;;;8.03;100.00;100061.16;1754936;82;21079;-62
2022/04/06 00:20:16;;;;;;;37.48;21.75;;;;;;;8.06;100.00;100057.63;1755145;81;21079;-62
2022/04/06 00:22:46;;;;;;;33.38;21.10;;;;;;;8.09;100.00;100053.68;1754898;81;21043;-62
2022/04/06 00:25:13;;;;;;;33.30;21.33;;;;;;;8.03;100.00;100065.02;1754818;82;21500;-62
2022/04/06 00:27:42;;;;;;;32.28;21.52;;;;;;;8.04;100.00;100059.43;1754801;82;21515;-62
2022/04/06 00:30:11;;;;;;;34.70;21.62;;;;;;;8.07;100.00;100068.72;1754955;82;21335;-62
2022/04/06 00:32:39;;;;;;;32.90;21.62;;;;;;;8.03;100.00;100063.73;1755191;81;21008;-62
2022/04/06 00:37:54;;;;;;;39.92;22.62;;;;;;;8.07;100.00;100074.70;1755155;81;21051;-62
2022/04/06 00:40:23;;;;;;;35.65;20.95;;;;;;;8.07;100.00;100080.25;1754895;82;21542;-62
2022/04/06 00:42:53;;;;;;;38.55;21.37;;;;;;;8.08;100.00;100078.91;1755055;82;21063;-62
2022/04/06 00:45:24;;;;;;;34.30;20.65;;;;;;;8.08;100.00;100078.91;1754942;82;21087;-62
2022/04/06 00:47:54;;;;;;;33.63;21.20;;;;;;;8.12;100.00;100079.62;1754811;81;21055;-62
2022/04/06 00:50:23;;;;;;;34.25;21.50;;;;;;;8.14;100.00;100079.95;1755467;81;21051;-62
2022/04/06 00:52:57;;;;;;;33.00;19.67;;;;;;;8.11;100.00;100079.23;1756406;82;21036;-62
2022/04/06 00:55:33;;;;;;;37.23;21.37;;;;;;;8.21;100.00;100077.53;1756492;82;21529;-62
2022/04/06 00:58:00;;;;;;;35.13;22.05;;;;;;;8.19;100.00;100074.20;1755913;82;21011;-62
2022/04/06 01:00:29;;;;;;;38.65;21.75;;;;;;;8.18;100.00;100084.05;1756694;82;21090;-62
2022/04/06 01:02:57;;;;;;;36.23;21.30;;;;;;;8.23;100.00;100069.75;1756825;82;21511;-62
2022/04/06 01:05:25;;;;;;;36.15;21.15;;;;;;;8.29;100.00;100077.64;1756551;82;21087;-62
2022/04/06 01:07:56;;;;;;;40.48;21.87;;;;;;;8.27;100.00;100078.98;1756705;81;21035;-62
2022/04/06 01:10:24;;;;;;;38.85;20.80;;;;;;;8.25;100.00;100082.06;1756730;82;21078;-62
2022/04/06 01:12:53;;;;;;;33.65;20.92;;;;;;;8.22;100.00;100075.33;1756462;82;21035;-61
2022/04/06 01:15:20;;;;;;;36.23;19.70;;;;;;;8.25;100.00;100077.39;1756677;82;21039;-61
2022/04/06 01:17:49;;;;;;;35.68;20.80;;;;;;;8.26;100.00;100075.22;1756488;81;21039;-62
2022/04/06 01:20:17;;;;;;;38.63;21.05;;;;;;;8.30;100.00;100072.91;1756749;81;21004;-61
2022/04/06 01:22:45;;;;;;;38.98;21.25;;;;;;;8.35;100.00;100070.98;1756462;81;21063;-61
2022/04/06 01:25:14;;;;;;;34.25;20.70;;;;;;;8.31;100.00;100075.39;1756495;81;21480;-61
2022/04/06 01:27:43;;;;;;;31.05;19.70;;;;;;;8.22;100.00;100067.64;1756701;82;21067;-62
2022/04/06 01:30:11;;;;;;;34.63;20.40;;;;;;;8.32;100.00;100068.55;1756506;81;21039;-61
2022/04/06 01:32:41;;;;;;;36.88;20.77;;;;;;;8.28;100.00;100064.00;1756462;82;21043;-61
2022/04/06 01:35:08;;;;;;;39.48;20.92;;;;;;;8.32;100.00;100065.99;1756712;81;21063;-61
2022/04/06 01:37:36;;;;;;;34.15;20.30;;;;;;;8.35;100.00;100067.98;1756467;82;21051;-61
2022/04/06 01:40:06;;;;;;;35.88;20.80;;;;;;;8.36;100.00;100060.66;1756350;82;21074;-62
2022/04/06 01:42:34;;;;;;;38.65;20.95;;;;;;;8.31;100.00;100064.31;1756744;81;21484;-62
2022/04/06 01:45:01;;;;;;;37.80;20.25;;;;;;;8.34;100.00;100062.91;1756691;82;21083;-61
2022/04/06 01:47:29;;;;;;;33.88;20.70;;;;;;;8.34;100.00;100062.91;1756420;81;21032;-61
2022/04/06 01:52:44;;;;;;;36.48;19.60;;;;;;;8.35;100.00;100065.84;1748173;81;21035;-61
2022/04/06 01:55:14;;;;;;;29.55;18.30;;;;;;;8.37;100.00;100062.34;1745747;82;21116;-61
2022/04/06 01:57:43;;;;;;;36.88;19.40;;;;;;;8.34;100.00;100067.59;1746493;82;21524;-62
2022/04/06 02:00:17;;;;;;;35.50;19.50;;;;;;;8.32;100.00;100073.23;1747378;81;21004;-62
2022/04/06 02:02:50;;;;;;;31.25;18.73;;;;;;;8.33;100.00;100071.49;1742322;82;21014;-62
2022/04/06 02:05:18;;;;;;;33.42;18.10;;;;;;;8.30;100.00;100075.02;1752012;82;21129;-61
2022/04/06 02:07:46;;;;;;;34.60;18.60;;;;;;;8.27;100.00;100069.18;1744893;82;20960;-62
2022/04/06 02:10:15;;;;;;;32.05;17.80;;;;;;;8.21;100.00;100063.85;1750959;82;21009;-63
2022/04/06 02:12:45;;;;;;;31.97;18.45;;;;;;;8.21;100.00;100063.42;1744057;82;21480;-62
2022/04/06 02:15:14;;;;;;;32.65;18.20;;;;;;;8.26;100.00;100077.79;1745041;82;21532;-62
2022/04/06 02:17:44;;;;;;;31.93;17.87;;;;;;;8.28;100.00;100074.71;1746114;82;21046;-63
2022/04/06 02:20:12;;;;;;;30.85;17.90;;;;;;;8.30;100.00;100073.74;1740652;82;21040;-62
2022/04/06 02:22:42;;;;;;;31.97;17.55;;;;;;;8.31;100.00;100082.26;1746499;82;21032;-62
2022/04/06 02:25:15;;;;;;;27.55;17.35;;;;;;;8.33;100.00;100088.16;1749114;82;20969;-62
2022/04/06 02:27:49;;;;;;;34.45;17.00;;;;;;;8.34;100.00;100084.71;1748192;82;20980;-63
2022/04/06 02:30:19;;;;;;;30.00;17.17;;;;;;;8.33;100.00;100081.33;1748146;82;21453;-63
2022/04/06 02:32:47;;;;;;;30.68;17.87;;;;;;;8.27;100.00;100087.95;1753545;82;21030;-62
2022/04/06 02:35:15;;;;;;;28.77;17.87;;;;;;;8.30;100.00;100090.41;1746891;82;20984;-63
2022/04/06 02:37:44;;;;;;;31.85;17.40;;;;;;;8.30;100.00;100087.02;1747717;82;21469;-63
2022/04/06 02:40:13;;;;;;;26.95;16.32;;;;;;;8.29;100.00;100087.45;1746684;82;21087;-62
2022/04/06 02:42:41;;;;;;;30.60;17.85;;;;;;;8.31;100.00;100087.39;1746793;82;21505;-63
2022/04/06 02:45:10;;;;;;;30.15;17.00;;;;;;;8.32;100.00;100091.18;1747848;82;21019;-63
2022/04/06 02:47:37;;;;;;;31.57;18.15;;;;;;;8.28;100.00;100093.48;1740954;82;21023;-63
2022/04/06 02:50:06;;;;;;;31.17;17.75;;;;;;;8.26;100.00;100088.88;1751768;82;20976;-62
2022/04/06 02:52:34;;;;;;;28.47;17.48;;;;;;;8.29;100.00;100094.31;1746289;82;20960;-62
2022/04/06 02:55:01;;;;;;;30.37;17.45;;;;;;;8.28;100.00;100101.63;1744680;82;21060;-63
2022/04/06 02:57:28;;;;;;;29.30;18.05;;;;;;;8.33;100.00;100106.11;1746713;82;21027;-63
2022/04/06 02:59:56;;;;;;;25.77;15.35;;;;;;;8.32;100.00;100116.00;1746416;82;21039;-62
2022/04/06 03:02:24;;;;;;;29.57;17.17;;;;;;;8.35;100.00;100123.13;1752117;81;21016;-63
2022/04/06 03:04:52;;;;;;;30.62;17.60;;;;;;;8.36;100.00;100128.63;1750692;82;21070;-64
2022/04/06 03:07:20;;;;;;;31.90;17.62;;;;;;;8.37;100.00;100130.73;1752909;81;21019;-62
2022/04/06 03:09:47;;;;;;;30.23;17.07;;;;;;;8.41;100.00;100142.14;1747851;82;21095;-63
2022/04/06 03:12:15;;;;;;;36.95;19.00;;;;;;;8.41;100.00;100141.28;1747858;81;21485;-63
2022/04/06 03:14:43;;;;;;;29.90;17.45;;;;;;;8.43;100.00;100148.47;1748294;82;21464;-63
2022/04/06 03:17:15;;;;;;;30.52;17.55;;;;;;;8.52;100.00;100145.54;1746042;82;21078;-62
2022/04/06 03:19:42;;;;;;;30.45;17.57;;;;;;;8.48;100.00;100155.54;1744787;82;21008;-64
2022/04/06 03:22:16;;;;;;;29.02;17.45;;;;;;;8.46;100.00;100156.05;1749390;81;21055;-63
2022/04/06 03:24:40;;;;;;;29.77;17.32;;;;;;;8.45;100.00;100154.37;1750263;80;21056;-63
2022/04/06 03:27:08;;;;;;;30.55;17.98;;;;;;;8.45;100.00;100150.98;1744266;82;21042;-63
2022/04/06 03:29:35;;;;;;;29.80;17.10;;;;;;;8.47;100.00;100157.70;1737841;82;21543;-61
2022/04/06 03:32:04;;;;;;;29.95;17.70;;;;;;;8.45;100.00;100151.80;1737569;82;21048;-61
2022/04/06 03:34:31;;;;;;;31.15;18.05;;;;;;;8.49;100.00;100158.48;1737643;82;21521;-61
2022/04/06 03:36:59;;;;;;;29.35;17.55;;;;;;;8.49;100.00;100168.73;1737628;83;21075;-61
2022/04/06 03:39:26;;;;;;;29.42;17.60;;;;;;;8.46;100.00;100170.16;1742494;82;21051;-61
2022/04/06 03:41:54;;;;;;;27.90;16.77;;;;;;;8.45;100.00;100177.45;1749477;82;20977;-62
2022/04/06 03:44:23;;;;;;;30.52;17.55;;;;;;;8.51;100.00;100179.77;1741975;82;21505;-61
2022/04/06 03:46:50;;;;;;;31.07;17.45;;;;;;;8.55;100.00;100179.20;1747550;82;20995;-62
2022/04/06 03:49:17;;;;;;;28.90;17.45;;;;;;;8.59;100.00;100178.17;1748093;81;21055;-62
2022/04/06 03:51:44;;;;;;;30.48;18.07;;;;;;;8.55;100.00;100171.50;1741677;82;21004;-62
2022/04/06 03:54:13;;;;;;;27.30;17.57;;;;;;;8.45;100.00;100177.91;1745571;82;20977;-62
2022/04/06 03:56:41;;;;;;;30.35;17.48;;;;;;;8.53;100.00;100180.54;1743529;82;21004;-62
2022/04/06 03:59:08;;;;;;;27.22;17.17;;;;;;;8.54;100.00;100192.48;1740187;82;21067;-63
2022/04/06 04:01:37;;;;;;;29.87;17.42;;;;;;;8.55;100.00;100185.62;1740497;82;21012;-63
2022/04/06 04:04:05;;;;;;;28.47;17.82;;;;;;;8.58;100.00;100187.62;1742624;82;21000;-62
2022/04/06 04:06:33;;;;;;;30.85;17.30;;;;;;;8.64;100.00;100186.53;1739134;82;21528;-62
2022/04/06 04:09:00;;;;;;;28.23;16.60;;;;;;;8.70;100.00;100200.82;1738664;82;21044;-62
2022/04/06 04:11:30;;;;;;;26.17;15.85;;;;;;;8.76;100.00;100198.86;1738669;82;21083;-62
2022/04/06 04:13:59;;;;;;;29.75;17.37;;;;;;;8.70;100.00;100204.67;1739058;82;21053;-62
2022/04/06 04:16:28;;;;;;;30.68;17.77;;;;;;;8.74;100.00;100208.78;1739097;82;21510;-62
2022/04/06 04:18:56;;;;;;;27.58;16.87;;;;;;;8.78;100.00;100208.61;1747972;82;21019;-62
2022/04/06 04:21:33;;;;;;;31.52;17.52;;;;;;;8.80;100.00;100216.25;1752783;82;21138;-62
2022/04/06 04:24:08;;;;;;;28.83;16.45;;;;;;;8.82;100.00;100220.88;1752550;82;21067;-62
2022/04/06 04:26:38;;;;;;;27.82;16.52;;;;;;;8.76;100.00;100218.56;1752793;82;21019;-62
2022/04/06 04:29:09;;;;;;;28.70;17.60;;;;;;;8.72;100.00;100225.97;1752671;82;21003;-62
2022/04/06 04:31:37;;;;;;;29.15;16.93;;;;;;;8.76;100.00;100228.83;1752759;82;21022;-62
2022/04/06 04:34:05;;;;;;;29.87;16.77;;;;;;;8.81;100.00;100232.02;1752471;82;20991;-62
2022/04/06 04:36:33;;;;;;;28.52;17.15;;;;;;;8.89;100.00;100238.95;1752677;81;21026;-62
2022/04/06 04:39:03;;;;;;;27.17;16.75;;;;;;;8.95;100.00;100237.88;1752446;82;21543;-62
2022/04/06 04:41:31;;;;;;;27.70;17.10;;;;;;;9.02;100.00;100243.98;1752536;82;21008;-62
2022/04/06 04:43:58;;;;;;;26.75;16.07;;;;;;;9.06;100.00;100237.41;1752909;82;21483;-62
2022/04/06 04:46:26;;;;;;;31.27;17.60;;;;;;;9.14;100.00;100243.89;1752488;82;21028;-62
2022/04/06 04:48:55;;;;;;;32.35;17.17;;;;;;;8.98;100.00;100243.72;1752313;82;21062;-62
2022/04/06 04:51:22;;;;;;;28.83;17.42;;;;;;;9.09;100.00;100247.58;1752314;81;21032;-62
2022/04/06 04:53:51;;;;;;;29.70;17.20;;;;;;;9.14;100.00;100257.19;1752386;82;21039;-62
2022/04/06 04:56:19;;;;;;;28.75;15.48;;;;;;;9.07;100.00;100263.49;1751707;82;21058;-62
2022/04/06 04:58:46;;;;;;;28.80;17.20;;;;;;;9.16;100.00;100260.52;1718967;82;21031;-62
2022/04/06 05:01:13;;;;;;;28.15;16.87;;;;;;;8.94;100.00;100270.42;1743038;82;21459;-62
2022/04/06 05:03:41;;;;;;;27.37;17.15;;;;;;;8.87;100.00;100267.70;1742719;82;21076;-62
2022/04/06 05:06:08;;;;;;;34.03;17.55;;;;;;;8.70;100.00;100264.55;1720673;83;21067;-62
2022/04/06 05:08:37;;;;;;;31.60;17.92;;;;;;;8.63;100.00;100276.77;1740581;82;21501;-62
2022/04/06 05:11:06;;;;;;;28.62;17.48;;;;;;;8.64;100.00;100290.45;1756500;80;21035;-62
2022/04/06 05:13:36;;;;;;;28.77;17.45;;;;;;;8.79;100.00;100283.41;1717417;83;21593;-62
2022/04/06 05:16:05;;;;;;;34.98;17.40;;;;;;;8.77;100.00;100280.53;1722772;82;21551;-62
2022/04/06 05:18:33;;;;;;;29.42;18.12;;;;;;;8.76;100.00;100281.44;1710310;83;21015;-62
2022/04/06 05:21:03;;;;;;;28.55;17.40;;;;;;;8.79;100.00;100301.83;1743419;82;20964;-62
2022/04/06 05:23:31;;;;;;;29.87;16.93;;;;;;;8.81;100.00;100297.47;1738683;82;21020;-62
2022/04/06 05:25:58;;;;;;;30.60;16.95;;;;;;;8.91;100.00;100300.05;1741684;82;21082;-62
2022/04/06 05:28:26;;;;;;;30.10;17.95;;;;;;;9.00;100.00;100302.69;1742649;82;21484;-62
2022/04/06 05:30:53;;;;;;;31.33;18.37;;;;;;;9.09;100.00;100297.64;1742115;82;21024;-61
2022/04/06 05:33:22;;;;;;;30.25;17.75;;;;;;;9.12;100.00;100303.46;1740629;82;20980;-62
2022/04/06 05:35:50;;;;;;;31.45;17.40;;;;;;;9.12;100.00;100300.89;1754222;80;21069;-62
2022/04/06 05:38:17;;;;;;;31.62;16.80;;;;;;;9.20;100.00;100300.58;1715391;83;21465;-62
2022/04/06 05:40:46;;;;;;;28.50;17.23;;;;;;;9.35;100.00;100310.23;1738888;80;21039;-62
2022/04/06 05:43:13;;;;;;;29.77;17.12;;;;;;;9.40;100.00;100310.85;1755628;80;21018;-62
2022/04/06 05:45:40;;;;;;;30.00;16.45;;;;;;;9.51;100.00;100310.42;1710658;83;21484;-62
2022/04/06 05:48:09;;;;;;;28.25;15.23;;;;;;;9.57;100.00;100314.01;1750553;80;21534;-62
2022/04/06 05:50:37;;;;;;;29.02;15.68;;;;;;;9.64;100.00;100319.70;1744356;82;21015;-61
2022/04/06 05:53:05;;;;;;;23.60;14.50;;;;;;;9.72;100.00;100311.22;1754741;82;21063;-62
2022/04/06 05:55:32;;;;;;;22.37;15.45;;;;;;;9.71;100.00;100316.41;1754986;82;21086;-62
2022/04/06 05:58:00;;;;;;;21.80;14.25;;;;;;;9.82;100.00;100320.19;1755889;82;21082;-62
2022/04/06 06:00:27;;;;;;;21.85;13.83;;;;;;;9.95;100.00;100313.22;1755363;82;21110;-62
2022/04/06 06:02:55;;;;;;;22.65;13.38;;;;;;;10.10;100.00;100325.86;1755590;82;21035;-62
2022/04/06 06:05:22;;;;;;;26.15;13.93;;;;;;;10.08;100.00;100326.38;1755626;82;21079;-62
2022/04/06 06:07:50;;;;;;;21.57;13.43;;;;;;;10.07;100.00;100334.52;1755169;82;21035;-62
2022/04/06 06:10:19;;;;;;;21.07;12.98;;;;;;;10.18;100.00;100343.06;1755388;82;21518;-62
2022/04/06 06:12:47;;;;;;;21.05;12.50;;;;;;;10.27;100.00;100344.38;1755862;82;21046;-61
2022/04/06 06:15:16;;;;;;;19.07;12.60;;;;;;;10.35;100.00;100348.30;1755499;82;21083;-61
2022/04/06 06:17:45;;;;;;;22.22;12.82;;;;;;;10.41;100.00;100351.88;1755294;82;21063;-62
2022/04/06 06:20:12;;;;;;;18.73;12.03;;;;;;;10.50;100.00;100342.06;1755850;82;21496;-63
2022/04/06 06:22:40;;;;;;;20.25;12.07;;;;;;;10.56;100.00;100349.06;1755405;82;21027;-63
2022/04/06 06:25:08;;;;;;;17.87;10.80;;;;;;;10.70;100.00;100356.11;1755838;82;21008;-63
2022/04/06 06:27:41;;;;;;;18.73;11.53;;;;;;;10.81;100.00;100353.88;1755643;82;21123;-63
2022/04/06 06:30:13;;;;;;;16.30;10.53;;;;;;;10.85;100.00;100352.00;1754189;82;21552;-65
2022/04/06 06:32:41;;;;;;;14.07;9.35;;;;;;;10.98;100.00;100365.12;1742387;82;21030;-64
2022/04/06 06:35:09;;;;;;;17.15;9.75;;;;;;;11.03;99.78;100366.56;1709761;83;21076;-64
2022/04/06 06:37:39;;;;;;;13.80;9.28;;;;;;;11.14;98.11;100369.91;1711244;82;21085;-64
2022/04/06 06:40:08;;;;;;;14.38;9.38;;;;;;;11.25;95.63;100372.41;1681913;84;21052;-64
2022/04/06 06:42:35;;;;;;;16.37;8.98;;;;;;;11.39;96.08;100373.84;1706382;83;21033;-63
2022/04/06 06:45:04;;;;;;;13.40;8.18;;;;;;;11.45;93.56;100381.27;1740038;82;21015;-64
2022/04/06 06:47:31;;;;;;;11.45;8.63;;;;;;;11.65;92.99;100380.74;1744168;82;21023;-64
2022/04/06 06:49:58;;;;;;;12.78;8.70;;;;;;;11.92;92.04;100379.81;1717585;83;20997;-63
2022/04/06 06:52:27;;;;;;;13.18;8.85;;;;;;;11.99;90.86;100380.70;1729985;82;21024;-63
2022/04/06 06:54:55;;;;;;;12.68;8.93;;;;;;;11.93;90.10;100378.91;1696769;84;21505;-63
2022/04/06 06:57:22;;;;;;;13.75;8.50;;;;;;;11.93;89.88;100376.33;1723722;82;21008;-63
2022/04/06 06:59:50;;;;;;;11.93;8.20;;;;;;;12.00;87.37;100376.37;1724971;82;20996;-63
2022/04/06 07:02:17;;;;;;;11.65;7.37;;;;;;;12.15;88.02;100381.21;1698408;84;21015;-63
2022/04/06 07:04:44;;;;;;;10.03;7.35;;;;;;;12.13;85.67;100364.51;1720841;82;21044;-64
2022/04/06 07:07:12;;;;;;;12.53;7.78;;;;;;;12.19;84.64;100382.25;1728177;82;21063;-63
2022/04/06 07:09:40;;;;;;;12.15;8.60;;;;;;;12.23;82.83;100383.75;1741230;82;21016;-63
2022/04/06 07:12:10;;;;;;;12.33;7.70;;;;;;;12.20;83.20;100385.19;1741142;82;21528;-63
2022/04/06 07:14:38;;;;;;;11.95;7.67;;;;;;;12.37;84.00;100380.44;1741021;82;21543;-63
2022/04/06 07:17:06;;;;;;;17.48;7.83;;;;;;;12.46;82.71;100376.52;1740605;82;21051;-63
2022/04/06 07:19:33;;;;;;;12.95;6.85;;;;;;;12.61;82.36;100386.03;1740779;81;21519;-63
2022/04/06 07:22:00;;;;;;;10.55;7.00;;;;;;;12.61;79.73;100383.45;1740361;82;21091;-63
2022/04/06 07:24:27;;;;;;;12.15;7.03;;;;;;;12.71;79.14;100381.64;1740694;82;21110;-63
2022/04/06 07:26:56;;;;;;;8.55;7.00;;;;;;;12.69;79.06;100390.78;1740346;81;21022;-63
2022/04/06 07:29:23;;;;;;;10.38;6.25;;;;;;;12.81;78.46;100390.55;1741263;82;21483;-63
2022/04/06 07:31:51;;;;;;;11.28;6.15;;;;;;;12.85;78.17;100388.16;1741012;81;21504;-62
2022/04/06 07:34:19;;;;;;;8.10;5.75;;;;;;;12.99;77.14;100393.39;1740899;82;21039;-63
2022/04/06 07:36:47;;;;;;;5.95;5.12;;;;;;;13.20;77.07;100398.30;1741155;82;21004;-62
2022/04/06 07:39:16;;;;;;;9.03;5.53;;;;;;;13.34;76.15;100404.84;1740854;82;21012;-63
2022/04/06 07:41:44;;;;;;;6.83;5.47;;;;;;;13.28;74.28;100393.95;1740881;81;20980;-63
2022/04/06 07:44:11;;;;;;;5.80;4.70;;;;;;;13.39;74.17;100402.80;1740936;82;21473;-63
2022/04/06 07:46:39;;;;;;;6.42;4.47;;;;;;;13.45;72.62;100411.14;1740935;82;21016;-63
2022/04/06 07:49:07;;;;;;;7.90;5.42;;;;;;;13.56;71.71;100406.16;1740988;82;21052;-63
2022/04/06 07:51:37;;;;;;;7.65;5.00;;;;;;;13.48;71.58;100409.66;1741333;82;21548;-63
2022/04/06 07:54:04;;;;;;;6.58;4.85;;;;;;;13.56;72.83;100407.45;1756577;82;21011;-63
2022/04/06 07:56:32;;;;;;;6.20;5.10;;;;;;;13.63;71.84;100412.19;1756456;82;21520;-63
2022/04/06 07:59:00;;;;;;;7.45;4.50;;;;;;;13.72;70.69;100415.16;1756437;82;21038;-63
2022/04/06 08:01:27;;;;;;;4.75;3.98;;;;;;;13.81;70.75;100418.05;1756672;82;21039;-63
2022/04/06 08:03:55;;;;;;;5.15;4.00;;;;;;;13.95;67.87;100430.17;1756413;82;21070;-63
2022/04/06 08:06:24;;;;;;;6.00;4.58;;;;;;;13.88;67.01;100422.85;1756801;82;20996;-63
2022/04/06 08:08:53;;;;;;;5.80;4.55;;;;;;;13.89;67.42;100425.80;1756376;82;21035;-62
2022/04/06 08:11:23;;;;;;;4.60;4.10;;;;;;;13.94;69.30;100423.78;1756413;82;21023;-63
2022/04/06 08:13:50;;;;;;;7.50;4.55;;;;;;;14.03;68.20;100427.95;1756759;82;21035;-63
2022/04/06 08:16:17;;;;;;;7.00;4.65;;;;;;;14.10;67.78;100425.82;1756366;82;21492;-63
2022/04/06 08:18:44;;;;;;;5.83;4.40;;;;;;;14.18;67.14;100429.25;1756663;82;21027;-63
2022/04/06 08:21:33;;;;;;;5.30;4.60;;;;;;;14.22;66.66;100434.14;1756549;80;21027;-63
2022/04/06 08:24:01;;;;;;;8.43;4.75;;;;;;;14.59;67.81;100437.56;1756772;82;21019;-63
2022/04/06 08:26:29;;;;;;;6.42;4.90;;;;;;;14.67;66.99;100418.48;1756739;82;21058;-63
2022/04/06 08:28:58;;;;;;;7.08;4.40;;;;;;;14.80;66.41;100432.34;1753388;82;21571;-63
2022/04/06 08:31:25;;;;;;;5.03;4.20;;;;;;;15.00;66.23;100420.72;1755992;82;21042;-60
2022/04/06 08:33:53;;;;;;;6.60;4.58;;;;;;;14.90;63.86;100417.49;1756468;82;21007;-60
2022/04/06 08:36:21;;;;;;;6.87;4.25;;;;;;;15.07;64.15;100426.34;1756579;82;20996;-60
2022/04/06 08:38:48;;;;;;;6.42;4.22;;;;;;;15.05;64.53;100417.83;1756535;82;21266;-63
2022/04/06 08:41:19;;;;;;;9.33;4.62;;;;;;;15.17;65.40;100410.55;1756715;82;21007;-63
2022/04/06 08:43:46;;;;;;;5.70;4.20;;;;;;;15.12;63.63;100419.08;1756862;82;20996;-63
2022/04/06 08:46:17;;;;;;;4.55;3.90;;;;;;;15.13;62.42;100426.41;1756430;82;21027;-63
2022/04/06 08:48:51;;;;;;;4.30;3.90;;;;;;;15.29;63.63;100423.19;1756645;82;21043;-63
2022/04/06 08:51:22;;;;;;;8.58;4.35;;;;;;;15.28;62.88;100412.44;1756883;82;21500;-63
2022/04/06 08:53:49;;;;;;;5.70;4.30;;;;;;;15.32;62.77;100427.34;1753676;82;21066;-63
2022/04/06 08:56:16;;;;;;;6.03;4.03;;;;;;;15.09;63.52;100418.47;1752437;82;21067;-63
2022/04/06 08:58:45;;;;;;;5.03;4.25;;;;;;;14.65;63.89;100434.59;1752483;82;21110;-63
2022/04/06 09:01:12;;;;;;;4.50;3.90;;;;;;;14.63;64.60;100428.67;1752419;82;21133;-63
2022/04/06 09:03:40;;;;;;;6.70;3.70;;;;;;;14.36;63.59;100422.12;1752389;82;21043;-63
2022/04/06 09:06:12;;;;;;;3.70;3.15;;;;;;;14.05;63.85;100425.72;1752637;82;21472;-63
2022/04/06 09:08:46;;;;;;;6.55;4.40;;;;;;;14.11;63.48;100427.94;1752641;82;21520;-63
2022/04/06 09:11:18;;;;;;;4.85;3.80;;;;;;;14.44;63.10;100417.30;1752776;82;21448;-63
2022/04/06 09:13:48;;;;;;;6.30;3.90;;;;;;;14.68;62.82;100421.46;1752743;82;21082;-63
2022/04/06 09:16:18;;;;;;;4.20;3.80;;;;;;;14.80;61.77;100418.09;1752615;82;21013;-62
2022/04/06 09:18:48;;;;;;;4.47;4.00;;;;;;;14.93;62.60;100409.54;1752509;82;21067;-62
2022/04/06 09:21:18;;;;;;;3.30;2.98;;;;;;;14.74;63.08;100415.89;1752649;82;21058;-63
2022/04/06 09:23:51;;;;;;;4.08;3.35;;;;;;;14.76;61.94;100419.66;1752741;82;21063;-63
2022/04/06 09:26:20;;;;;;;3.90;3.50;;;;;;;14.98;60.22;100417.39;1752658;82;21019;-63
2022/04/06 09:28:50;;;;;;;4.92;3.22;;;;;;;15.34;60.08;100409.91;1752731;82;21066;-63
2022/04/06 09:31:21;;;;;;;4.62;3.70;;;;;;;15.66;59.48;100415.56;1752808;82;20987;-61
2022/04/06 09:34:02;;;;;;;5.90;3.20;;;;;;;15.57;59.74;100425.25;1752674;82;21091;-60
2022/04/06 09:36:32;;;;;;;3.45;3.08;;;;;;;15.65;58.23;100412.59;1752662;82;21504;-61
2022/04/06 09:39:00;;;;;;;3.22;2.92;;;;;;;15.77;58.91;100427.84;1752735;82;21007;-61
2022/04/06 09:41:30;;;;;;;4.42;3.20;;;;;;;15.88;58.18;100420.66;1752343;82;22379;-61
2022/04/06 09:47:38;;;;;;;4.28;3.20;;;;;;;15.96;57.42;100423.08;1752704;82;21042;-61
2022/04/06 09:49:28;;;;;;;5.42;2.98;;;;;;;15.90;56.75;100436.95;1752607;82;21066;-61
2022/04/06 09:51:55;;;;;;;3.95;3.08;;;;;;;15.98;56.14;100430.30;1752475;82;21062;-61
2022/04/06 09:54:25;;;;;;;3.70;3.30;;;;;;;16.00;56.71;100430.20;1754027;82;21031;-62
2022/04/06 09:56:55;;;;;;;5.53;3.20;;;;;;;16.10;56.28;100432.98;1756745;82;20987;-62
2022/04/06 09:59:24;;;;;;;4.25;2.80;;;;;;;15.94;56.96;100426.25;1756825;82;21062;-62
2022/04/06 10:01:52;;;;;;;3.72;2.87;;;;;;;16.27;57.27;100420.16;1756607;81;21058;-62
2022/04/06 10:04:21;;;;;;;4.05;3.20;;;;;;;16.56;55.21;100423.30;1756789;82;21007;-62
2022/04/06 10:06:49;;;;;;;5.37;3.00;;;;;;;16.59;55.25;100427.81;1756813;82;21114;-62
2022/04/06 10:09:17;;;;;;;3.15;2.85;;;;;;;16.63;54.96;100428.44;1756437;82;20995;-62
2022/04/06 10:11:47;;;;;;;2.90;2.50;;;;;;;16.52;54.46;100430.47;1756570;82;21528;-62
2022/04/06 10:14:14;;;;;;;3.65;2.52;;;;;;;16.81;54.27;100424.56;1756416;82;21063;-62
2022/04/06 10:16:45;;;;;;;3.87;2.87;;;;;;;17.04;54.66;100430.34;1756645;82;20996;-62
2022/04/06 10:19:16;;;;;;;4.53;2.80;;;;;;;16.53;53.53;100429.55;1756595;82;21118;-62
2022/04/06 10:22:02;;;;;;;3.12;2.80;;;;;;;16.32;53.55;100430.59;1730995;82;21523;-62
2022/04/06 10:24:55;;;;;;;3.60;2.83;;;;;;;16.42;54.90;100427.71;1756356;82;21083;-62
2022/04/06 10:27:32;;;;;;;4.00;2.80;;;;;;;16.37;55.82;100432.86;1756764;82;21484;-62
2022/04/06 10:30:23;;;;;;;4.55;2.60;;;;;;;16.65;53.19;100438.73;1756385;82;21011;-62
2022/04/06 10:32:52;;;;;;;2.98;2.33;;;;;;;16.84;53.78;100432.59;1738073;82;20971;-63
2022/04/06 10:35:33;;;;;;;3.42;2.60;;;;;;;17.30;53.38;100425.84;1756275;82;21016;-62
2022/04/06 10:38:09;;;;;;;3.20;2.65;;;;;;;17.27;52.90;100435.16;1756635;82;21093;-62
2022/04/06 10:40:56;;;;;;;2.60;2.40;;;;;;;17.09;52.36;100427.78;1756691;82;21070;-62
2022/04/06 10:43:41;;;;;;;3.92;2.40;;;;;;;17.14;53.04;100443.86;1756600;82;21507;-62
2022/04/06 10:46:12;;;;;;;2.80;2.42;;;;;;;16.92;52.77;100438.08;1756673;82;21022;-60
2022/04/06 10:49:02;;;;;;;3.62;2.62;;;;;;;17.12;54.45;100437.94;1751505;82;21035;-62
2022/04/06 10:51:37;;;;;;;4.75;2.52;;;;;;;17.39;52.69;100445.48;1755907;82;21024;-61
2022/04/06 10:54:21;;;;;;;4.08;2.60;;;;;;;17.35;52.18;100445.35;1756137;82;21113;-62
2022/04/06 10:56:53;;;;;;;4.85;2.70;;;;;;;17.47;52.18;100444.92;1752490;82;21055;-61
2022/04/06 10:59:31;;;;;;;3.25;2.62;;;;;;;17.21;51.37;100455.94;1752791;82;21000;-61
2022/04/06 11:02:25;;;;;;;2.92;2.30;;;;;;;16.95;51.04;100447.42;1752342;82;21504;-61
2022/04/06 11:04:55;;;;;;;5.25;2.58;;;;;;;16.99;52.20;100444.51;1752767;82;21122;-62
2022/04/06 11:10:30;;;;;;;3.80;2.47;;;;;;;17.90;50.85;100431.80;1752781;82;21054;-61
2022/04/06 11:13:10;;;;;;;2.92;2.62;;;;;;;17.98;50.69;100433.34;1752549;82;21667;-61
2022/04/06 11:15:43;;;;;;;4.58;2.85;;;;;;;18.28;50.83;100438.45;1751871;82;21027;-61
2022/04/06 11:18:47;;;;;;;3.08;2.22;;;;;;;18.17;49.88;100437.98;1752505;82;21555;-61
2022/04/06 11:21:15;;;;;;;4.50;2.33;;;;;;;17.92;50.01;100435.94;1752805;82;21071;-61
2022/04/06 11:23:43;;;;;;;2.33;2.12;;;;;;;17.52;50.91;100442.83;1752561;82;21039;-62
2022/04/06 11:26:12;;;;;;;3.33;2.47;;;;;;;17.63;51.39;100439.41;1752832;82;21031;-61
2022/04/06 11:28:41;;;;;;;2.33;2.02;;;;;;;17.62;50.48;100432.56;1752614;82;21074;-62
2022/04/06 11:31:08;;;;;;;3.05;2.50;;;;;;;17.86;51.37;100441.61;1752573;82;21027;-62
2022/04/06 11:33:42;;;;;;;4.75;2.30;;;;;;;17.95;49.11;100457.03;1752714;82;21032;-61
2022/04/06 11:36:16;;;;;;;4.17;1.87;;;;;;;17.75;49.22;100440.27;1753370;82;21488;-62